createdAt,value
2018-09-21T00:00:45.409Z,87.12
2018-09-21T00:01:45.411Z,87.50
2018-09-21T00:02:45.410Z,87.79
2018-09-21T00:03:45.410Z,87.79
2018-09-21T00:04:45.412Z,87.60
2018-09-21T00:05:45.411Z,87.70
2018-09-21T00:06:45.410Z,87.21
2018-09-21T00:07:45.412Z,87.12
2018-09-21T00:08:45.410Z,87.27
2018-09-21T00:09:45.411Z,87.27
2018-09-21T00:10:45.411Z,88.32
2018-09-21T00:11:45.412Z,88.32
2018-09-21T00:12:45.414Z,88.32
2018-09-21T00:13:45.419Z,88.23
2018-09-21T00:14:45.414Z,88.42
2018-09-21T00:15:45.416Z,88.13
2018-09-21T00:16:45.417Z,88.13
2018-09-21T00:17:45.415Z,88.32
2018-09-21T00:18:45.414Z,88.90
2018-09-21T00:19:45.413Z,88.90
2018-09-21T00:20:45.414Z,88.70
2018-09-21T00:21:45.416Z,88.61
2018-09-21T00:22:45.421Z,88.51
2018-09-21T00:23:45.417Z,88.32
2018-09-21T00:24:45.415Z,88.80
2018-09-21T00:25:45.416Z,88.80
2018-09-21T00:26:45.414Z,88.95
2018-09-21T00:27:45.414Z,89.33
2018-09-21T00:28:45.415Z,89.33
2018-09-21T00:29:45.417Z,89.43
2018-09-21T00:30:45.416Z,89.43
2018-09-21T00:31:45.422Z,90.00
2018-09-21T00:32:45.416Z,89.90
2018-09-21T00:33:45.417Z,89.81
2018-09-21T00:34:45.415Z,90.00
2018-09-21T00:35:45.416Z,90.00
2018-09-21T00:36:45.415Z,89.90
2018-09-21T00:37:45.417Z,89.52
2018-09-21T00:38:45.415Z,89.81
2018-09-21T00:39:45.420Z,89.81
2018-09-21T00:40:45.417Z,89.81
2018-09-21T00:41:45.419Z,89.90
2018-09-21T00:42:45.418Z,89.72
2018-09-21T00:43:45.416Z,89.81
2018-09-21T00:44:45.416Z,89.81
2018-09-21T00:45:45.418Z,89.52
2018-09-21T00:46:45.416Z,89.62
2018-09-21T00:47:45.418Z,90.19
2018-09-21T00:48:45.416Z,89.62
2018-09-21T00:49:45.417Z,89.72
2018-09-21T00:50:45.420Z,89.90
2018-09-21T00:51:45.416Z,89.72
2018-09-21T00:52:45.416Z,90.00
2018-09-21T00:53:45.417Z,89.90
2018-09-21T00:54:45.415Z,90.19
2018-09-21T00:55:45.416Z,90.29
2018-09-21T00:56:45.416Z,89.90
2018-09-21T00:57:45.419Z,90.09
2018-09-21T00:58:45.415Z,89.90
2018-09-21T00:59:45.415Z,90.29
2018-09-21T01:00:45.416Z,90.09
2018-09-21T01:01:45.422Z,90.09
2018-09-21T01:02:45.415Z,90.09
2018-09-21T01:03:45.415Z,89.90
2018-09-21T01:04:45.414Z,89.90
2018-09-21T01:05:45.415Z,90.86
2018-09-21T01:06:45.414Z,90.77
2018-09-21T01:07:45.415Z,89.81
2018-09-21T01:08:45.415Z,90.39
2018-09-21T01:09:45.414Z,90.39
2018-09-21T01:10:45.414Z,90.48
2018-09-21T01:11:45.417Z,90.77
2018-09-21T01:12:45.414Z,90.77
2018-09-21T01:13:45.414Z,90.19
2018-09-21T01:14:45.412Z,90.48
2018-09-21T01:15:45.411Z,90.29
2018-09-21T01:16:45.412Z,90.63
2018-09-21T01:17:45.411Z,90.24
2018-09-21T01:18:45.411Z,90.63
2018-09-21T01:19:45.411Z,90.48
2018-09-21T01:20:45.410Z,90.72
2018-09-21T01:21:45.411Z,90.63
2018-09-21T01:22:45.410Z,90.34
2018-09-21T01:23:45.411Z,90.63
2018-09-21T01:24:45.410Z,90.53
2018-09-21T01:25:45.411Z,90.82
2018-09-21T01:26:45.458Z,90.53
2018-09-21T01:27:45.409Z,90.63
2018-09-21T01:28:45.408Z,91.01
2018-09-21T01:29:45.410Z,91.11
2018-09-21T01:30:45.409Z,91.01
2018-09-21T01:31:45.409Z,91.01
2018-09-21T01:32:45.446Z,91.05
2018-09-21T01:33:45.408Z,90.96
2018-09-21T01:34:45.408Z,91.44
2018-09-21T01:35:45.406Z,91.34
2018-09-21T01:36:45.406Z,91.15
2018-09-21T01:37:45.406Z,90.67
2018-09-21T01:38:45.406Z,90.48
2018-09-21T01:39:45.406Z,90.67
2018-09-21T01:40:45.405Z,90.58
2018-09-21T01:41:45.404Z,91.05
2018-09-21T01:42:45.405Z,91.15
2018-09-21T01:43:45.404Z,90.58
2018-09-21T01:44:45.403Z,90.48
2018-09-21T01:45:45.405Z,90.72
2018-09-21T01:46:45.402Z,90.81
2018-09-21T01:47:45.403Z,90.23
2018-09-21T01:48:45.401Z,90.81
2018-09-21T01:49:45.401Z,89.95
2018-09-21T01:50:45.402Z,89.71
2018-09-21T01:51:45.402Z,89.90
2018-09-21T01:52:45.405Z,89.71
2018-09-21T01:53:45.402Z,89.13
2018-09-21T01:54:45.400Z,89.32
2018-09-21T01:55:45.401Z,89.04
2018-09-21T01:56:45.400Z,88.79
2018-09-21T01:57:45.401Z,88.60
2018-09-21T01:58:45.400Z,88.31
2018-09-21T01:59:45.399Z,88.31
2018-09-21T02:00:45.403Z,88.12
2018-09-21T02:01:45.399Z,87.84
2018-09-21T02:02:45.399Z,87.64
2018-09-21T02:03:45.402Z,88.02
2018-09-21T02:04:45.398Z,87.93
2018-09-21T02:05:45.399Z,88.02
2018-09-21T02:06:45.401Z,87.84
2018-09-21T02:07:45.397Z,88.02
2018-09-21T02:08:45.398Z,87.93
2018-09-21T02:09:45.399Z,88.41
2018-09-21T02:10:45.398Z,88.22
2018-09-21T02:11:45.397Z,88.31
2018-09-21T02:12:45.398Z,88.22
2018-09-21T02:13:45.399Z,88.70
2018-09-21T02:14:45.397Z,88.79
2018-09-21T02:15:45.398Z,88.51
2018-09-21T02:16:45.399Z,88.98
2018-09-21T02:17:45.428Z,88.79
2018-09-21T02:18:45.398Z,88.79
2018-09-21T02:19:45.398Z,88.89
2018-09-21T02:20:45.397Z,88.02
2018-09-21T02:21:45.399Z,88.22
2018-09-21T02:22:45.398Z,88.22
2018-09-21T02:23:45.396Z,88.41
2018-09-21T02:24:45.398Z,87.55
2018-09-21T02:25:45.396Z,88.22
2018-09-21T02:26:45.397Z,88.26
2018-09-21T02:27:45.397Z,88.22
2018-09-21T02:28:45.398Z,87.98
2018-09-21T02:29:45.397Z,88.07
2018-09-21T02:30:45.396Z,87.84
2018-09-21T02:31:45.397Z,87.88
2018-09-21T02:32:45.397Z,87.55
2018-09-21T02:33:45.400Z,88.22
2018-09-21T02:34:45.397Z,88.12
2018-09-21T02:35:45.396Z,88.31
2018-09-21T02:36:45.399Z,88.31
2018-09-21T02:37:45.399Z,88.89
2018-09-21T02:38:45.398Z,88.70
2018-09-21T02:39:45.397Z,88.51
2018-09-21T02:40:45.398Z,88.51
2018-09-21T02:41:45.398Z,88.79
2018-09-21T02:42:45.397Z,88.60
2018-09-21T02:43:45.396Z,88.98
2018-09-21T02:44:45.398Z,88.79
2018-09-21T02:45:45.401Z,88.79
2018-09-21T02:46:45.399Z,88.65
2018-09-21T02:47:45.398Z,88.17
2018-09-21T02:48:45.491Z,87.88
2018-09-21T02:49:45.399Z,87.98
2018-09-21T02:50:45.398Z,87.88
2018-09-21T02:51:45.398Z,88.07
2018-09-21T02:52:45.399Z,87.98
2018-09-21T02:53:45.400Z,87.98
2018-09-21T02:54:45.402Z,87.98
2018-09-21T02:55:45.399Z,87.98
2018-09-21T02:56:45.399Z,87.98
2018-09-21T02:57:45.401Z,87.59
2018-09-21T02:58:45.399Z,86.87
2018-09-21T02:59:45.399Z,86.68
2018-09-21T03:00:45.543Z,86.58
2018-09-21T03:01:45.401Z,87.05
2018-09-21T03:02:45.399Z,86.96
2018-09-21T03:03:45.400Z,86.96
2018-09-21T03:04:45.400Z,86.54
2018-09-21T03:05:45.401Z,86.58
2018-09-21T03:06:45.401Z,86.87
2018-09-21T03:07:45.400Z,86.48
2018-09-21T03:08:45.403Z,86.68
2018-09-21T03:09:45.402Z,86.38
2018-09-21T03:10:45.400Z,86.38
2018-09-21T03:11:45.402Z,86.05
2018-09-21T03:12:45.420Z,86.33
2018-09-21T03:13:45.404Z,85.66
2018-09-21T03:14:45.403Z,85.80
2018-09-21T03:15:45.403Z,84.64
2018-09-21T03:16:45.408Z,84.55
2018-09-21T03:17:45.405Z,84.21
2018-09-21T03:18:45.405Z,83.53
2018-09-21T03:19:45.404Z,83.34
2018-09-21T03:20:45.405Z,83.63
2018-09-21T03:21:45.405Z,82.96
2018-09-21T03:22:45.405Z,83.25
2018-09-21T03:23:45.406Z,82.48
2018-09-21T03:24:45.406Z,82.76
2018-09-21T03:25:45.408Z,82.76
2018-09-21T03:26:45.409Z,82.76
2018-09-21T03:27:45.407Z,82.86
2018-09-21T03:28:45.409Z,83.25
2018-09-21T03:29:45.410Z,83.34
2018-09-21T03:30:45.412Z,83.15
2018-09-21T03:31:45.414Z,82.96
2018-09-21T03:32:45.411Z,82.96
2018-09-21T03:33:45.416Z,82.67
2018-09-21T03:34:45.414Z,82.67
2018-09-21T03:35:45.414Z,82.76
2018-09-21T03:36:45.414Z,82.86
2018-09-21T03:37:45.415Z,82.76
2018-09-21T03:38:45.415Z,82.52
2018-09-21T03:39:45.416Z,82.14
2018-09-21T03:40:45.417Z,82.04
2018-09-21T03:41:45.416Z,81.56
2018-09-21T03:42:45.419Z,81.46
2018-09-21T03:43:45.417Z,81.94
2018-09-21T03:44:45.419Z,81.56
2018-09-21T03:45:45.421Z,81.84
2018-09-21T03:46:45.420Z,81.84
2018-09-21T03:47:45.421Z,81.75
2018-09-21T03:48:45.422Z,81.65
2018-09-21T03:49:45.423Z,81.94
2018-09-21T03:50:45.425Z,81.27
2018-09-21T03:51:45.425Z,81.30
2018-09-21T03:52:45.425Z,81.12
2018-09-21T03:53:45.427Z,81.17
2018-09-21T03:54:45.425Z,81.21
2018-09-21T03:55:45.428Z,81.40
2018-09-21T03:56:45.430Z,81.60
2018-09-21T03:57:45.430Z,81.50
2018-09-21T03:58:45.430Z,80.83
2018-09-21T03:59:45.430Z,80.44
2018-09-21T04:00:45.432Z,81.12
2018-09-21T04:01:45.433Z,81.02
2018-09-21T04:02:45.433Z,80.73
2018-09-21T04:03:45.434Z,80.92
2018-09-21T04:04:45.437Z,80.44
2018-09-21T04:05:45.436Z,81.02
2018-09-21T04:06:45.437Z,81.12
2018-09-21T04:07:45.438Z,80.83
2018-09-21T04:08:45.441Z,80.44
2018-09-21T04:09:45.441Z,80.25
2018-09-21T04:10:45.442Z,80.54
2018-09-21T04:11:45.442Z,80.25
2018-09-21T04:12:45.447Z,80.63
2018-09-21T04:13:45.446Z,80.63
2018-09-21T04:14:45.444Z,80.63
2018-09-21T04:15:45.448Z,80.63
2018-09-21T04:16:45.449Z,80.54
2018-09-21T04:17:45.459Z,80.44
2018-09-21T04:18:45.451Z,80.54
2018-09-21T04:19:45.452Z,80.54
2018-09-21T04:20:45.454Z,81.02
2018-09-21T04:21:45.455Z,81.02
2018-09-21T04:22:45.459Z,80.83
2018-09-21T04:23:45.456Z,80.44
2018-09-21T04:24:45.457Z,80.73
2018-09-21T04:25:45.460Z,80.54
2018-09-21T04:26:45.459Z,80.73
2018-09-21T04:27:45.461Z,80.83
2018-09-21T04:28:45.463Z,80.92
2018-09-21T04:29:45.463Z,81.40
2018-09-21T04:30:45.465Z,81.70
2018-09-21T04:31:45.466Z,81.12
2018-09-21T04:32:45.468Z,80.35
2018-09-21T04:33:45.469Z,79.81
2018-09-21T04:34:45.471Z,79.61
2018-09-21T04:35:45.471Z,80.19
2018-09-21T04:36:45.478Z,80.00
2018-09-21T04:37:45.475Z,79.90
2018-09-21T04:38:45.475Z,79.61
2018-09-21T04:39:45.478Z,79.61
2018-09-21T04:40:45.478Z,79.90
2018-09-21T04:41:45.480Z,78.94
2018-09-21T04:42:45.481Z,78.65
2018-09-21T04:43:45.483Z,78.65
2018-09-21T04:44:45.485Z,78.56
2018-09-21T04:45:45.536Z,78.65
2018-09-21T04:46:45.496Z,78.65
2018-09-21T04:47:45.489Z,78.65
2018-09-21T04:48:45.489Z,78.69
2018-09-21T04:49:45.492Z,78.27
2018-09-21T04:50:45.492Z,79.03
2018-09-21T04:51:45.494Z,79.33
2018-09-21T04:52:45.497Z,79.03
2018-09-21T04:53:45.499Z,79.33
2018-09-21T04:54:45.498Z,79.43
2018-09-21T04:55:45.501Z,79.43
2018-09-21T04:56:45.501Z,79.52
2018-09-21T04:57:45.504Z,79.43
2018-09-21T04:58:45.504Z,78.94
2018-09-21T04:59:45.506Z,79.52
2018-09-21T05:00:45.507Z,79.61
2018-09-21T05:01:45.515Z,79.33
2018-09-21T05:02:45.511Z,79.52
2018-09-21T05:03:45.513Z,79.13
2018-09-21T05:04:45.515Z,78.65
2018-09-21T05:05:45.516Z,78.46
2018-09-21T05:06:45.517Z,78.59
2018-09-21T05:07:45.519Z,78.50
2018-09-21T05:08:45.521Z,78.59
2018-09-21T05:09:45.523Z,78.40
2018-09-21T05:10:45.525Z,78.50
2018-09-21T05:11:45.525Z,78.31
2018-09-21T05:12:45.528Z,78.40
2018-09-21T05:13:45.546Z,78.11
2018-09-21T05:14:45.535Z,77.96
2018-09-21T05:15:45.532Z,77.48
2018-09-21T05:16:45.535Z,77.92
2018-09-21T05:17:45.536Z,77.67
2018-09-21T05:18:45.538Z,77.53
2018-09-21T05:19:45.580Z,78.40
2018-09-21T05:20:45.542Z,77.48
2018-09-21T05:21:45.544Z,77.53
2018-09-21T05:22:45.544Z,78.21
2018-09-21T05:23:45.549Z,78.02
2018-09-21T05:24:45.550Z,77.86
2018-09-21T05:25:45.550Z,77.67
2018-09-21T05:26:45.552Z,76.90
2018-09-21T05:27:45.554Z,77.00
2018-09-21T05:28:45.557Z,76.51
2018-09-21T05:29:45.558Z,76.51
2018-09-21T05:30:45.560Z,76.84
2018-09-21T05:31:45.561Z,76.75
2018-09-21T05:32:45.564Z,76.90
2018-09-21T05:33:45.566Z,76.75
2018-09-21T05:34:45.684Z,76.65
2018-09-21T05:35:45.569Z,76.36
2018-09-21T05:36:45.572Z,76.65
2018-09-21T05:37:45.573Z,76.26
2018-09-21T05:38:45.576Z,75.97
2018-09-21T05:39:45.578Z,75.97
2018-09-21T05:40:45.580Z,75.78
2018-09-21T05:41:45.583Z,76.07
2018-09-21T05:42:45.583Z,76.07
2018-09-21T05:43:45.588Z,75.97
2018-09-21T05:44:45.589Z,75.49
2018-09-21T05:45:45.591Z,75.59
2018-09-21T05:46:45.592Z,75.88
2018-09-21T05:47:45.594Z,75.05
2018-09-21T05:48:45.600Z,74.95
2018-09-21T05:49:45.599Z,74.66
2018-09-21T05:50:45.601Z,73.60
2018-09-21T05:51:45.602Z,73.50
2018-09-21T05:52:45.606Z,73.41
2018-09-21T05:53:45.607Z,73.60
2018-09-21T05:54:45.610Z,73.89
2018-09-21T05:55:45.612Z,73.50
2018-09-21T05:56:45.614Z,73.41
2018-09-21T05:57:45.619Z,73.21
2018-09-21T05:58:45.619Z,73.41
2018-09-21T05:59:45.620Z,73.69
2018-09-21T06:00:45.623Z,74.37
2018-09-21T06:01:45.628Z,74.27
2018-09-21T06:02:45.646Z,74.57
2018-09-21T06:03:45.628Z,74.05
2018-09-21T06:04:45.632Z,74.27
2018-09-21T06:05:45.634Z,74.08
2018-09-21T06:06:45.637Z,73.89
2018-09-21T06:07:45.653Z,73.99
2018-09-21T06:08:45.643Z,74.18
2018-09-21T06:09:45.643Z,73.21
2018-09-21T06:10:45.648Z,73.60
2018-09-21T06:11:45.648Z,73.41
2018-09-21T06:12:45.650Z,73.31
2018-09-21T06:13:45.690Z,73.02
2018-09-21T06:14:45.655Z,73.41
2018-09-21T06:15:45.661Z,73.41
2018-09-21T06:16:45.660Z,73.60
2018-09-21T06:17:45.663Z,73.21
2018-09-21T06:18:45.666Z,73.69
2018-09-21T06:19:45.669Z,74.08
2018-09-21T06:20:45.670Z,74.18
2018-09-21T06:21:45.673Z,73.99
2018-09-21T06:22:45.682Z,74.08
2018-09-21T06:23:45.677Z,73.60
2018-09-21T06:24:45.681Z,73.89
2018-09-21T06:25:45.684Z,73.79
2018-09-21T06:26:45.686Z,73.60
2018-09-21T06:27:45.688Z,73.41
2018-09-21T06:28:45.692Z,73.31
2018-09-21T06:29:45.694Z,73.89
2018-09-21T06:30:45.697Z,73.99
2018-09-21T06:31:45.699Z,73.99
2018-09-21T06:32:45.703Z,73.89
2018-09-21T06:33:45.707Z,73.99
2018-09-21T06:34:45.708Z,73.79
2018-09-21T06:35:45.709Z,73.41
2018-09-21T06:36:45.712Z,73.21
2018-09-21T06:37:45.716Z,73.02
2018-09-21T06:38:45.721Z,72.92
2018-09-21T06:39:45.722Z,73.60
2018-09-21T06:40:45.724Z,73.31
2018-09-21T06:41:45.728Z,72.92
2018-09-21T06:42:45.732Z,72.73
2018-09-21T06:43:45.733Z,72.73
2018-09-21T06:44:45.735Z,73.02
2018-09-21T06:45:45.737Z,72.92
2018-09-21T06:46:45.741Z,73.50
2018-09-21T06:47:45.742Z,72.73
2018-09-21T06:48:45.753Z,72.63
2018-09-21T06:49:45.754Z,72.15
2018-09-21T06:50:45.753Z,71.77
2018-09-21T06:51:45.757Z,71.96
2018-09-21T06:52:45.760Z,71.96
2018-09-21T06:53:45.763Z,71.77
2018-09-21T06:54:45.764Z,71.12
2018-09-21T06:55:45.767Z,71.22
2018-09-21T06:56:45.771Z,70.70
2018-09-21T06:57:45.774Z,70.70
2018-09-21T06:58:45.776Z,70.61
2018-09-21T06:59:45.779Z,70.84
2018-09-21T07:00:45.785Z,70.64
2018-09-21T07:01:45.799Z,69.64
2018-09-21T07:02:45.789Z,68.43
2018-09-21T07:03:45.791Z,68.43
2018-09-21T07:04:45.795Z,68.77
2018-09-21T07:05:45.797Z,69.16
2018-09-21T07:06:45.800Z,69.45
2018-09-21T07:07:45.803Z,69.16
2018-09-21T07:08:45.806Z,70.03
2018-09-21T07:09:45.809Z,70.70
2018-09-21T07:10:45.811Z,70.61
2018-09-21T07:11:45.815Z,71.67
2018-09-21T07:12:45.818Z,71.67
2018-09-21T07:13:45.822Z,72.83
2018-09-21T07:14:45.823Z,73.27
2018-09-21T07:15:45.887Z,73.57
2018-09-21T07:16:45.828Z,75.10
2018-09-21T07:17:45.832Z,75.20
2018-09-21T07:18:45.836Z,75.01
2018-09-21T07:19:45.840Z,74.82
2018-09-21T07:20:45.842Z,75.01
2018-09-21T07:21:45.844Z,75.30
2018-09-21T07:22:45.845Z,75.20
2018-09-21T07:23:45.851Z,75.49
2018-09-21T07:24:45.851Z,75.30
2018-09-21T07:25:45.856Z,75.30
2018-09-21T07:26:45.857Z,76.17
2018-09-21T07:27:45.862Z,75.97
2018-09-21T07:28:45.863Z,75.40
2018-09-21T07:29:45.866Z,75.49
2018-09-21T07:30:45.919Z,75.30
2018-09-21T07:31:45.873Z,75.10
2018-09-21T07:32:45.874Z,74.95
2018-09-21T07:33:45.879Z,74.76
2018-09-21T07:34:45.880Z,74.76
2018-09-21T07:35:45.882Z,74.85
2018-09-21T07:36:45.886Z,73.99
2018-09-21T07:37:45.891Z,73.21
2018-09-21T07:38:45.892Z,72.54
2018-09-21T07:39:45.896Z,73.50
2018-09-21T07:40:45.897Z,74.27
2018-09-21T07:41:45.901Z,74.08
2018-09-21T07:42:45.903Z,73.60
2018-09-21T07:43:45.906Z,73.69
2018-09-21T07:44:45.914Z,73.31
2018-09-21T07:45:45.914Z,73.02
2018-09-21T07:46:45.914Z,72.63
2018-09-21T07:47:45.918Z,72.34
2018-09-21T07:48:45.957Z,72.06
2018-09-21T07:49:45.924Z,72.34
2018-09-21T07:50:45.929Z,72.92
2018-09-21T07:51:45.930Z,72.83
2018-09-21T07:52:45.935Z,73.60
2018-09-21T07:53:45.937Z,73.60
2018-09-21T07:54:45.939Z,73.60
2018-09-21T07:55:45.944Z,73.02
2018-09-21T07:56:45.946Z,72.92
2018-09-21T07:57:45.950Z,73.41
2018-09-21T07:58:45.952Z,73.41
2018-09-21T07:59:45.955Z,72.44
2018-09-21T08:00:45.958Z,72.92
2018-09-21T08:01:45.960Z,72.25
2018-09-21T08:02:45.964Z,72.63
2018-09-21T08:03:45.968Z,72.44
2018-09-21T08:04:45.970Z,72.44
2018-09-21T08:05:45.973Z,72.54
2018-09-21T08:06:45.975Z,73.11
2018-09-21T08:07:45.979Z,72.73
2018-09-21T08:08:45.983Z,72.73
2018-09-21T08:09:45.986Z,72.83
2018-09-21T08:10:45.986Z,73.02
2018-09-21T08:11:45.989Z,72.73
2018-09-21T08:12:46.002Z,73.02
2018-09-21T08:13:45.999Z,73.60
2018-09-21T08:14:45.998Z,74.41
2018-09-21T08:15:46.002Z,75.05
2018-09-21T08:16:46.006Z,74.76
2018-09-21T08:17:46.008Z,75.05
2018-09-21T08:18:46.011Z,75.53
2018-09-21T08:19:46.014Z,74.85
2018-09-21T08:20:46.017Z,75.62
2018-09-21T08:21:46.023Z,75.59
2018-09-21T08:22:46.023Z,75.88
2018-09-21T08:23:46.028Z,75.49
2018-09-21T08:24:46.029Z,76.45
2018-09-21T08:25:46.035Z,76.93
2018-09-21T08:26:46.036Z,78.00
2018-09-21T08:27:46.041Z,79.35
2018-09-21T08:28:46.043Z,79.54
2018-09-21T08:29:46.045Z,80.76
2018-09-21T08:30:46.049Z,80.76
2018-09-21T08:31:46.051Z,79.89
2018-09-21T08:32:46.056Z,80.76
2018-09-21T08:33:46.059Z,79.79
2018-09-21T08:34:46.060Z,79.98
2018-09-21T08:35:46.065Z,80.27
2018-09-21T08:36:46.067Z,79.69
2018-09-21T08:37:46.070Z,80.52
2018-09-21T08:38:46.073Z,80.33
2018-09-21T08:39:46.076Z,80.85
2018-09-21T08:40:46.078Z,80.81
2018-09-21T08:41:46.082Z,80.71
2018-09-21T08:42:46.084Z,82.45
2018-09-21T08:43:46.088Z,84.38
2018-09-21T08:44:46.091Z,85.00
2018-09-21T08:45:46.093Z,86.35
2018-09-21T08:46:46.096Z,87.37
2018-09-21T08:47:46.098Z,87.56
2018-09-21T08:48:46.100Z,88.48
2018-09-21T08:49:46.104Z,89.54
2018-09-21T08:50:46.105Z,89.69
2018-09-21T08:51:46.108Z,90.36
2018-09-21T08:52:46.112Z,90.65
2018-09-21T08:53:46.115Z,91.95
2018-09-21T08:54:46.116Z,92.14
2018-09-21T08:55:46.118Z,93.29
2018-09-21T08:56:46.120Z,94.45
2018-09-21T08:57:46.122Z,90.95
2018-09-21T08:58:46.124Z,94.17
2018-09-21T08:59:46.126Z,96.70
2018-09-21T09:00:46.128Z,97.90
2018-09-21T09:01:46.134Z,96.27
2018-09-21T09:02:46.200Z,97.75
2018-09-21T09:03:46.133Z,99.91
2018-09-21T09:04:46.134Z,99.99
2018-09-21T09:05:46.137Z,99.62
2018-09-21T09:06:46.136Z,98.66
2018-09-21T09:07:46.139Z,97.18
2018-09-21T09:08:46.140Z,98.24
2018-09-21T09:09:46.142Z,97.37
2018-09-21T09:10:46.141Z,97.56
2018-09-21T09:11:46.141Z,99.00
2018-09-21T09:12:46.142Z,98.24
2018-09-21T09:13:46.145Z,99.15
2018-09-21T09:14:46.143Z,99.48
2018-09-21T09:15:46.144Z,99.24
2018-09-21T09:16:46.143Z,98.09
2018-09-21T09:17:46.145Z,98.28
2018-09-21T09:18:46.143Z,99.24
2018-09-21T09:19:46.144Z,98.19
2018-09-21T09:20:46.144Z,98.09
2018-09-21T09:21:46.144Z,97.13
2018-09-21T09:22:46.144Z,95.12
2018-09-21T09:23:46.142Z,96.94
2018-09-21T09:24:46.143Z,96.75
2018-09-21T09:25:46.144Z,95.89
2018-09-21T09:26:46.141Z,97.47
2018-09-21T09:27:46.143Z,95.46
2018-09-21T09:28:46.143Z,95.75
2018-09-21T09:29:46.141Z,96.61
2018-09-21T09:30:46.141Z,95.46
2018-09-21T09:31:46.140Z,95.46
2018-09-21T09:32:46.142Z,95.56
2018-09-21T09:33:46.141Z,96.22
2018-09-21T09:34:46.140Z,95.75
2018-09-21T09:35:46.140Z,95.07
2018-09-21T09:36:46.197Z,96.80
2018-09-21T09:37:46.140Z,96.80
2018-09-21T09:38:46.139Z,96.03
2018-09-21T09:39:46.137Z,96.66
2018-09-21T09:40:46.141Z,97.52
2018-09-21T09:41:46.140Z,95.89
2018-09-21T09:42:46.164Z,96.75
2018-09-21T09:43:46.139Z,96.89
2018-09-21T09:44:46.141Z,98.14
2018-09-21T09:45:46.142Z,97.28
2018-09-21T09:46:46.138Z,98.24
2018-09-21T09:47:46.140Z,98.00
2018-09-21T09:48:46.218Z,98.19
2018-09-21T09:49:46.140Z,98.10
2018-09-21T09:50:46.139Z,98.28
2018-09-21T09:51:46.139Z,98.57
2018-09-21T09:52:46.138Z,98.96
2018-09-21T09:53:46.139Z,99.15
2018-09-21T09:54:46.144Z,99.43
2018-09-21T09:55:46.138Z,99.53
2018-09-21T09:56:46.139Z,99.91
2018-09-21T09:57:46.139Z,99.99
2018-09-21T09:58:46.138Z,99.99
2018-09-21T09:59:46.138Z,99.05
2018-09-21T10:00:46.140Z,98.14
2018-09-21T10:01:46.144Z,99.10
2018-09-21T10:02:46.137Z,97.95
2018-09-21T10:03:46.228Z,99.48
2018-09-21T10:04:46.141Z,99.43
2018-09-21T10:05:46.139Z,99.29
2018-09-21T10:06:46.138Z,99.15
2018-09-21T10:07:46.135Z,98.91
2018-09-21T10:08:46.140Z,99.24
2018-09-21T10:09:46.140Z,99.10
2018-09-21T10:10:46.143Z,99.10
2018-09-21T10:11:46.142Z,99.99
2018-09-21T10:12:46.138Z,99.00
2018-09-21T10:13:46.137Z,99.00
2018-09-21T10:14:46.137Z,98.91
2018-09-21T10:15:46.136Z,99.10
2018-09-21T10:16:46.136Z,97.38
2018-09-21T10:17:46.137Z,99.05
2018-09-21T10:18:46.141Z,97.47
2018-09-21T10:19:46.137Z,97.80
2018-09-21T10:20:46.169Z,97.23
2018-09-21T10:21:46.138Z,96.42
2018-09-21T10:22:46.136Z,97.66
2018-09-21T10:23:46.136Z,97.95
2018-09-21T10:24:46.137Z,98.05
2018-09-21T10:25:46.135Z,98.24
2018-09-21T10:26:46.167Z,97.18
2018-09-21T10:27:46.274Z,97.38
2018-09-21T10:28:46.207Z,97.04
2018-09-21T10:29:46.137Z,95.51
2018-09-21T10:30:46.134Z,97.04
2018-09-21T10:31:46.146Z,96.84
2018-09-21T10:32:46.135Z,96.18
2018-09-21T10:33:46.334Z,95.36
2018-09-21T10:34:46.135Z,95.60
2018-09-21T10:35:46.206Z,95.60
2018-09-21T10:36:46.136Z,95.60
2018-09-21T10:37:46.135Z,95.94
2018-09-21T10:38:46.134Z,95.36
2018-09-21T10:39:46.135Z,96.13
2018-09-21T10:40:46.134Z,95.36
2018-09-21T10:41:46.135Z,96.03
2018-09-21T10:42:46.237Z,96.47
2018-09-21T10:43:46.134Z,98.00
2018-09-21T10:44:46.135Z,97.33
2018-09-21T10:45:46.135Z,96.84
2018-09-21T10:46:46.131Z,95.89
2018-09-21T10:47:46.133Z,97.42
2018-09-21T10:48:46.132Z,97.23
2018-09-21T10:49:46.133Z,97.61
2018-09-21T10:50:46.131Z,97.52
2018-09-21T10:51:46.132Z,95.65
2018-09-21T10:52:46.201Z,95.26
2018-09-21T10:53:46.136Z,94.59
2018-09-21T10:54:46.131Z,94.54
2018-09-21T10:55:46.132Z,93.97
2018-09-21T10:56:46.131Z,93.82
2018-09-21T10:57:46.133Z,92.15
2018-09-21T10:58:46.176Z,92.15
2018-09-21T10:59:46.132Z,92.44
2018-09-21T11:00:46.133Z,92.34
2018-09-21T11:01:46.133Z,92.91
2018-09-21T11:02:46.133Z,93.06
2018-09-21T11:03:46.137Z,91.57
2018-09-21T11:04:46.133Z,91.19
2018-09-21T11:05:46.135Z,92.44
2018-09-21T11:06:46.135Z,92.15
2018-09-21T11:07:46.136Z,92.24
2018-09-21T11:08:46.136Z,91.28
2018-09-21T11:09:46.140Z,91.96
2018-09-21T11:10:46.136Z,92.15
2018-09-21T11:11:46.139Z,91.96
2018-09-21T11:12:46.141Z,92.19
2018-09-21T11:13:46.144Z,91.81
2018-09-21T11:14:46.141Z,91.00
2018-09-21T11:15:46.143Z,92.05
2018-09-21T11:16:46.144Z,92.34
2018-09-21T11:17:46.146Z,92.24
2018-09-21T11:18:46.147Z,92.05
2018-09-21T11:19:46.146Z,92.72
2018-09-21T11:20:46.148Z,93.97
2018-09-21T11:21:46.148Z,92.54
2018-09-21T11:22:46.150Z,92.91
2018-09-21T11:23:46.151Z,93.01
2018-09-21T11:24:46.154Z,93.44
2018-09-21T11:25:46.154Z,94.21
2018-09-21T11:26:46.153Z,93.83
2018-09-21T11:27:46.156Z,94.21
2018-09-21T11:28:46.155Z,94.69
2018-09-21T11:29:46.158Z,94.93
2018-09-21T11:30:46.156Z,96.18
2018-09-21T11:31:46.159Z,97.04
2018-09-21T11:32:46.161Z,95.65
2018-09-21T11:33:46.164Z,95.98
2018-09-21T11:34:46.159Z,95.98
2018-09-21T11:35:46.162Z,97.42
2018-09-21T11:36:46.161Z,96.66
2018-09-21T11:37:46.161Z,97.52
2018-09-21T11:38:46.162Z,96.47
2018-09-21T11:39:46.162Z,96.94
2018-09-21T11:40:46.164Z,96.75
2018-09-21T11:41:46.165Z,97.61
2018-09-21T11:42:46.164Z,97.33
2018-09-21T11:43:46.164Z,98.96
2018-09-21T11:44:46.166Z,98.19
2018-09-21T11:45:46.168Z,98.10
2018-09-21T11:46:46.242Z,99.34
2018-09-21T11:47:46.198Z,99.34
2018-09-21T11:48:46.168Z,99.99
2018-09-21T11:49:46.166Z,99.99
2018-09-21T11:50:46.165Z,99.99
2018-09-21T11:51:46.166Z,99.99
2018-09-21T11:52:46.168Z,97.95
2018-09-21T11:53:46.171Z,97.76
2018-09-21T11:54:46.166Z,97.47
2018-09-21T11:55:46.168Z,97.85
2018-09-21T11:56:46.167Z,95.56
2018-09-21T11:57:46.167Z,95.84
2018-09-21T11:58:46.167Z,95.46
2018-09-21T11:59:46.167Z,94.69
2018-09-21T12:00:46.168Z,93.54
2018-09-21T12:01:46.217Z,92.82
2018-09-21T12:02:46.170Z,91.24
2018-09-21T12:03:46.168Z,90.38
2018-09-21T12:04:46.169Z,90.90
2018-09-21T12:05:46.171Z,90.33
2018-09-21T12:06:46.169Z,90.14
2018-09-21T12:07:46.169Z,88.79
2018-09-21T12:08:46.171Z,88.70
2018-09-21T12:09:46.170Z,88.98
2018-09-21T12:10:46.173Z,88.98
2018-09-21T12:11:46.170Z,87.55
2018-09-21T12:12:46.171Z,86.78
2018-09-21T12:13:46.173Z,86.58
2018-09-21T12:14:46.172Z,86.68
2018-09-21T12:15:46.175Z,86.01
2018-09-21T12:16:46.176Z,85.63
2018-09-21T12:17:46.176Z,85.25
2018-09-21T12:18:46.174Z,84.67
2018-09-21T12:19:46.177Z,85.05
2018-09-21T12:20:46.181Z,84.09
2018-09-21T12:21:46.177Z,81.89
2018-09-21T12:22:46.242Z,83.23
2018-09-21T12:23:46.178Z,83.61
2018-09-21T12:24:46.179Z,82.85
2018-09-21T12:25:46.179Z,83.42
2018-09-21T12:26:46.179Z,81.45
2018-09-21T12:27:46.178Z,81.93
2018-09-21T12:28:46.180Z,80.78
2018-09-21T12:29:46.182Z,79.88
2018-09-21T12:30:46.182Z,79.24
2018-09-21T12:31:46.187Z,79.44
2018-09-21T12:32:46.183Z,79.30
2018-09-21T12:33:46.184Z,79.01
2018-09-21T12:34:46.185Z,78.25
2018-09-21T12:35:46.186Z,77.86
2018-09-21T12:36:46.187Z,77.67
2018-09-21T12:37:46.188Z,76.14
2018-09-21T12:38:46.225Z,75.95
2018-09-21T12:39:46.189Z,76.04
2018-09-21T12:40:46.189Z,74.85
2018-09-21T12:41:46.189Z,74.51
2018-09-21T12:42:46.191Z,73.99
2018-09-21T12:43:46.191Z,73.99
2018-09-21T12:44:46.255Z,74.51
2018-09-21T12:45:46.194Z,74.85
2018-09-21T12:46:46.191Z,73.90
2018-09-21T12:47:46.192Z,73.93
2018-09-21T12:48:46.192Z,74.31
2018-09-21T12:49:46.193Z,73.83
2018-09-21T12:50:46.216Z,72.88
2018-09-21T12:51:46.195Z,71.53
2018-09-21T12:52:46.195Z,71.25